createdAt,value
2018-10-12T00:00:40.726Z,22.70
2018-10-12T00:01:17.907Z,22.70
2018-10-12T00:01:55.500Z,22.70
2018-10-12T00:02:33.077Z,22.70
2018-10-12T00:03:10.512Z,22.70
2018-10-12T00:03:47.937Z,22.70
2018-10-12T00:04:25.449Z,22.70
2018-10-12T00:05:02.764Z,22.70
2018-10-12T00:05:40.216Z,22.70
2018-10-12T00:06:17.546Z,22.70
2018-10-12T00:06:54.990Z,22.70
2018-10-12T00:07:32.306Z,22.70
2018-10-12T00:08:09.519Z,22.70
2018-10-12T00:08:47.055Z,22.70
2018-10-12T00:09:24.367Z,22.70
2018-10-12T00:10:01.782Z,22.70
2018-10-12T00:11:17.715Z,22.70
2018-10-12T00:11:55.093Z,22.70
2018-10-12T00:12:32.409Z,22.70
2018-10-12T00:13:09.698Z,22.70
2018-10-12T00:13:47.094Z,22.70
2018-10-12T00:14:24.425Z,22.70
2018-10-12T00:15:01.847Z,22.70
2018-10-12T00:15:39.206Z,22.70
2018-10-12T00:16:16.804Z,22.70
2018-10-12T00:16:54.026Z,22.70
2018-10-12T00:17:31.373Z,22.70
2018-10-12T00:18:08.843Z,22.70
2018-10-12T00:18:46.078Z,22.70
2018-10-12T00:19:23.556Z,22.70
2018-10-12T00:20:00.912Z,22.70
2018-10-12T00:20:38.083Z,22.70
2018-10-12T00:21:19.072Z,22.70
2018-10-12T00:21:56.321Z,22.70
2018-10-12T00:22:33.983Z,22.70
2018-10-12T00:23:11.392Z,22.70
2018-10-12T00:23:48.792Z,22.70
2018-10-12T00:24:26.023Z,22.70
2018-10-12T00:25:03.481Z,22.70
2018-10-12T00:25:40.844Z,22.70
2018-10-12T00:26:59.550Z,22.70
2018-10-12T00:27:37.062Z,22.70
2018-10-12T00:28:14.593Z,22.70
2018-10-12T00:28:52.018Z,22.70
2018-10-12T00:29:29.446Z,22.70
2018-10-12T00:30:06.643Z,22.70
2018-10-12T00:30:44.008Z,22.70
2018-10-12T00:31:21.392Z,22.70
2018-10-12T00:32:41.348Z,22.70
2018-10-12T00:33:18.559Z,22.70
2018-10-12T00:33:55.830Z,22.70
2018-10-12T00:34:33.058Z,22.70
2018-10-12T00:35:10.460Z,22.70
2018-10-12T00:35:47.889Z,22.70
2018-10-12T00:36:25.369Z,22.70
2018-10-12T00:37:45.398Z,22.70
2018-10-12T00:38:22.661Z,22.70
2018-10-12T00:39:00.178Z,22.70
2018-10-12T00:39:37.644Z,22.70
2018-10-12T00:40:15.059Z,22.70
2018-10-12T00:40:52.378Z,22.70
2018-10-12T00:41:29.687Z,22.70
2018-10-12T00:42:07.118Z,22.70
2018-10-12T00:42:44.400Z,22.70
2018-10-12T00:43:21.558Z,22.70
2018-10-12T00:43:58.853Z,22.70
2018-10-12T00:44:36.272Z,22.70
2018-10-12T00:45:13.620Z,22.70
2018-10-12T00:45:50.906Z,22.70
2018-10-12T00:46:28.172Z,22.70
2018-10-12T00:47:09.589Z,22.70
2018-10-12T00:47:46.893Z,22.40
2018-10-12T00:48:24.158Z,22.70
2018-10-12T00:49:01.575Z,22.70
2018-10-12T00:49:39.182Z,22.70
2018-10-12T00:50:16.444Z,22.70
2018-10-12T00:50:53.741Z,22.70
2018-10-12T00:51:31.220Z,22.70
2018-10-12T00:52:08.587Z,22.70
2018-10-12T00:52:46.070Z,22.70
2018-10-12T00:53:23.466Z,22.70
2018-10-12T00:54:00.827Z,22.70
2018-10-12T00:54:38.123Z,22.70
2018-10-12T00:55:15.387Z,22.70
2018-10-12T00:55:52.896Z,22.70
2018-10-12T00:56:30.313Z,22.70
2018-10-12T00:57:07.585Z,22.70
2018-10-12T00:57:45.021Z,22.70
2018-10-12T00:58:22.524Z,22.70
2018-10-12T00:58:59.985Z,22.70
2018-10-12T00:59:37.406Z,22.70
2018-10-12T01:00:14.805Z,22.70
2018-10-12T01:00:52.141Z,22.70
2018-10-12T01:01:29.594Z,22.70
2018-10-12T01:02:07.044Z,22.70
2018-10-12T01:02:44.368Z,22.70
2018-10-12T01:03:21.795Z,22.70
2018-10-12T01:03:59.205Z,22.70
2018-10-12T01:04:36.675Z,22.70
2018-10-12T01:05:14.058Z,22.70
2018-10-12T01:05:51.280Z,22.70
2018-10-12T01:06:28.684Z,22.70
2018-10-12T01:07:49.152Z,22.70
2018-10-12T01:08:26.427Z,22.70
2018-10-12T01:09:03.734Z,22.70
2018-10-12T01:09:40.953Z,22.70
2018-10-12T01:10:18.415Z,22.70
2018-10-12T01:10:55.878Z,22.70
2018-10-12T01:11:33.384Z,22.70
2018-10-12T01:12:10.649Z,22.70
2018-10-12T01:13:30.754Z,22.70
2018-10-12T01:14:08.074Z,22.70
2018-10-12T01:14:45.443Z,22.70
2018-10-12T01:15:22.963Z,22.70
2018-10-12T01:16:00.443Z,22.70
2018-10-12T01:16:37.886Z,22.70
2018-10-12T01:17:15.192Z,22.70
2018-10-12T01:17:52.629Z,22.70
2018-10-12T01:18:30.173Z,22.70
2018-10-12T01:19:07.642Z,22.70
2018-10-12T01:19:44.852Z,22.70
2018-10-12T01:20:22.067Z,22.70
2018-10-12T01:20:59.571Z,22.70
2018-10-12T01:21:36.850Z,22.70
2018-10-12T01:22:14.040Z,22.70
2018-10-12T01:22:55.000Z,22.70
2018-10-12T01:23:32.299Z,22.70
2018-10-12T01:24:09.681Z,22.70
2018-10-12T01:24:47.185Z,22.70
2018-10-12T01:25:24.593Z,22.70
2018-10-12T01:26:01.962Z,22.70
2018-10-12T01:26:39.242Z,22.70
2018-10-12T01:27:16.659Z,22.70
2018-10-12T01:28:36.058Z,22.70
2018-10-12T01:29:13.501Z,22.70
2018-10-12T01:29:50.950Z,22.70
2018-10-12T01:30:28.150Z,22.70
2018-10-12T01:31:05.465Z,22.70
2018-10-12T01:31:42.733Z,22.70
2018-10-12T01:32:20.043Z,22.70
2018-10-12T01:32:57.333Z,22.70
2018-10-12T01:33:34.783Z,22.70
2018-10-12T01:34:12.199Z,22.70
2018-10-12T01:34:49.663Z,22.70
2018-10-12T01:35:27.180Z,22.70
2018-10-12T01:36:04.623Z,22.70
2018-10-12T01:36:42.158Z,22.70
2018-10-12T01:37:19.659Z,22.70
2018-10-12T01:37:57.063Z,22.70
2018-10-12T01:38:34.479Z,22.70
2018-10-12T01:39:11.928Z,22.70
2018-10-12T01:39:49.448Z,22.70
2018-10-12T01:40:26.927Z,22.70
2018-10-12T01:41:04.251Z,22.70
2018-10-12T01:41:41.578Z,22.70
2018-10-12T01:42:19.008Z,22.70
2018-10-12T01:42:56.297Z,22.70
2018-10-12T01:43:33.616Z,22.70
2018-10-12T01:44:11.107Z,22.70
2018-10-12T01:44:48.589Z,22.70
2018-10-12T01:45:25.840Z,22.70
2018-10-12T01:46:03.282Z,22.70
2018-10-12T01:46:40.609Z,22.70
2018-10-12T01:47:17.986Z,22.70
2018-10-12T01:47:55.218Z,22.70
2018-10-12T01:48:32.646Z,22.70
2018-10-12T01:49:10.136Z,22.70
2018-10-12T01:49:47.537Z,22.70
2018-10-12T01:50:25.123Z,22.70
2018-10-12T01:51:02.623Z,22.70
2018-10-12T01:51:39.972Z,22.70
2018-10-12T01:52:17.420Z,22.70
2018-10-12T01:52:54.757Z,22.70
2018-10-12T01:53:31.995Z,22.70
2018-10-12T01:54:09.459Z,22.70
2018-10-12T01:54:46.729Z,22.70
2018-10-12T01:55:23.898Z,22.70
2018-10-12T01:56:01.397Z,22.70
2018-10-12T01:56:38.867Z,22.70
2018-10-12T01:57:16.235Z,22.70
2018-10-12T01:57:53.547Z,22.70
2018-10-12T01:58:30.886Z,22.70
2018-10-12T01:59:08.173Z,22.70
2018-10-12T01:59:45.374Z,22.70
2018-10-12T02:00:22.513Z,22.70
2018-10-12T02:00:59.974Z,22.70
2018-10-12T02:01:37.198Z,22.70
2018-10-12T02:02:14.409Z,22.70
2018-10-12T02:02:51.860Z,22.70
2018-10-12T02:03:29.294Z,22.70
2018-10-12T02:04:06.637Z,22.70
2018-10-12T02:04:43.944Z,22.70
2018-10-12T02:05:21.457Z,22.70
2018-10-12T02:05:58.695Z,22.70
2018-10-12T02:06:36.140Z,22.70
2018-10-12T02:07:13.744Z,22.70
2018-10-12T02:07:51.277Z,22.70
2018-10-12T02:08:28.703Z,22.70
2018-10-12T02:09:06.133Z,22.70
2018-10-12T02:09:43.576Z,22.70
2018-10-12T02:10:21.148Z,22.70
2018-10-12T02:10:58.594Z,22.70
2018-10-12T02:11:36.056Z,22.70
2018-10-12T02:12:13.433Z,22.70
2018-10-12T02:12:50.724Z,22.70
2018-10-12T02:13:28.177Z,22.70
2018-10-12T02:14:05.552Z,22.70
2018-10-12T02:14:42.871Z,22.70
2018-10-12T02:15:20.383Z,22.70
2018-10-12T02:15:57.909Z,22.70
2018-10-12T02:16:35.412Z,22.70
2018-10-12T02:17:12.742Z,22.70
2018-10-12T02:17:50.352Z,22.70
2018-10-12T02:18:27.751Z,22.70
2018-10-12T02:19:05.130Z,22.70
2018-10-12T02:19:42.420Z,22.70
2018-10-12T02:20:19.635Z,22.70
2018-10-12T02:20:57.055Z,22.70
2018-10-12T02:21:34.380Z,22.70
2018-10-12T02:22:11.801Z,22.70
2018-10-12T02:22:49.291Z,22.70
2018-10-12T02:23:26.821Z,22.70
2018-10-12T02:24:04.212Z,22.70
2018-10-12T02:24:41.640Z,22.70
2018-10-12T02:25:19.068Z,22.70
2018-10-12T02:25:56.384Z,22.70
2018-10-12T02:26:33.600Z,22.70
2018-10-12T02:27:10.850Z,22.70
2018-10-12T02:27:48.262Z,22.70
2018-10-12T02:28:29.399Z,22.70
2018-10-12T02:29:06.812Z,22.70
2018-10-12T02:29:44.283Z,22.70
2018-10-12T02:30:21.614Z,22.70
2018-10-12T02:30:58.926Z,22.70
2018-10-12T02:31:36.524Z,22.70
2018-10-12T02:32:13.868Z,22.70
2018-10-12T02:32:51.360Z,22.70
2018-10-12T02:33:28.635Z,22.70
2018-10-12T02:34:06.090Z,22.70
2018-10-12T02:34:43.569Z,22.70
2018-10-12T02:35:21.000Z,22.70
2018-10-12T02:35:58.348Z,22.70
2018-10-12T02:36:35.849Z,22.70
2018-10-12T02:37:13.270Z,22.70
2018-10-12T02:37:50.589Z,22.70
2018-10-12T02:38:28.008Z,22.70
2018-10-12T02:39:05.488Z,22.70
2018-10-12T02:39:42.860Z,22.70
2018-10-12T02:40:20.227Z,22.70
2018-10-12T02:40:57.781Z,22.70
2018-10-12T02:41:35.211Z,22.70
2018-10-12T02:42:12.656Z,22.70
2018-10-12T02:42:49.956Z,22.70
2018-10-12T02:43:31.106Z,22.70
2018-10-12T02:44:08.357Z,22.70
2018-10-12T02:44:45.811Z,22.70
2018-10-12T02:45:23.376Z,22.70
2018-10-12T02:46:00.616Z,22.70
2018-10-12T02:46:38.066Z,22.70
2018-10-12T02:47:15.385Z,22.70
2018-10-12T02:47:52.611Z,22.70
2018-10-12T02:48:30.055Z,22.70
2018-10-12T02:49:07.582Z,22.70
2018-10-12T02:49:45.069Z,22.70
2018-10-12T02:50:22.491Z,22.70
2018-10-12T02:50:59.871Z,22.70
2018-10-12T02:51:37.057Z,22.70
2018-10-12T02:52:14.532Z,22.70
2018-10-12T02:52:51.854Z,22.70
2018-10-12T02:53:29.215Z,22.70
2018-10-12T02:54:06.699Z,22.70
2018-10-12T02:54:44.120Z,22.70
2018-10-12T02:55:21.356Z,22.70
2018-10-12T02:55:58.864Z,22.70
2018-10-12T02:56:36.307Z,22.70
2018-10-12T02:57:13.763Z,22.70
2018-10-12T02:57:51.183Z,22.70
2018-10-12T02:58:28.475Z,22.70
2018-10-12T02:59:05.862Z,22.70
2018-10-12T02:59:43.323Z,22.70
2018-10-12T03:00:20.886Z,22.70
2018-10-12T03:00:58.294Z,22.70
2018-10-12T03:01:35.484Z,22.70
2018-10-12T03:02:12.653Z,22.70
2018-10-12T03:02:49.927Z,22.70
2018-10-12T03:03:27.372Z,22.70
2018-10-12T03:04:04.918Z,22.70
2018-10-12T03:04:42.232Z,22.70
2018-10-12T03:05:19.672Z,22.70
2018-10-12T03:05:56.898Z,22.70
2018-10-12T03:06:34.250Z,22.70
2018-10-12T03:07:11.746Z,22.70
2018-10-12T03:07:49.212Z,22.70
2018-10-12T03:08:26.632Z,22.70
2018-10-12T03:09:03.991Z,22.70
2018-10-12T03:09:41.560Z,22.70
2018-10-12T03:10:18.783Z,22.70
2018-10-12T03:10:56.243Z,22.70
2018-10-12T03:11:33.506Z,22.70
2018-10-12T03:12:10.725Z,22.70
2018-10-12T03:12:47.940Z,22.70
2018-10-12T03:13:25.141Z,22.70
2018-10-12T03:14:02.405Z,22.70
2018-10-12T03:14:39.645Z,22.70
2018-10-12T03:15:16.921Z,22.70
2018-10-12T03:15:54.128Z,22.70
2018-10-12T03:16:31.418Z,22.70
2018-10-12T03:17:08.890Z,22.70
2018-10-12T03:17:46.324Z,22.70
2018-10-12T03:18:23.531Z,22.70
2018-10-12T03:19:00.768Z,22.70
2018-10-12T03:19:38.329Z,22.70
2018-10-12T03:20:15.697Z,22.70
2018-10-12T03:20:53.157Z,22.70
2018-10-12T03:21:30.410Z,22.70
2018-10-12T03:22:07.700Z,22.70
2018-10-12T03:22:44.917Z,22.70
2018-10-12T03:23:22.068Z,22.70
2018-10-12T03:23:59.446Z,22.70
2018-10-12T03:24:36.722Z,22.70
2018-10-12T03:25:14.069Z,22.70
2018-10-12T03:25:51.638Z,22.70
2018-10-12T03:26:29.019Z,22.70
2018-10-12T03:27:06.503Z,22.70
2018-10-12T03:27:43.972Z,22.70
2018-10-12T03:28:21.317Z,22.70
2018-10-12T03:28:58.478Z,22.70
2018-10-12T03:29:35.798Z,22.70
2018-10-12T03:30:13.057Z,22.70
2018-10-12T03:30:50.529Z,22.70
2018-10-12T03:31:28.026Z,22.70
2018-10-12T03:32:05.446Z,22.70
2018-10-12T03:32:42.829Z,22.70
2018-10-12T03:33:20.099Z,22.70
2018-10-12T03:33:57.599Z,22.70
2018-10-12T03:34:34.977Z,22.70
2018-10-12T03:35:12.489Z,22.70
2018-10-12T03:35:50.025Z,22.70
2018-10-12T03:36:27.535Z,22.70
2018-10-12T03:37:04.885Z,22.70
2018-10-12T03:37:42.156Z,22.70
2018-10-12T03:38:19.615Z,22.70
2018-10-12T03:38:56.894Z,22.70
2018-10-12T03:39:34.074Z,22.70
2018-10-12T03:40:11.514Z,22.70
2018-10-12T03:40:48.987Z,22.70
2018-10-12T03:41:26.433Z,22.70
2018-10-12T03:42:03.930Z,22.70
2018-10-12T03:43:24.436Z,22.70
2018-10-12T03:44:01.845Z,22.70
2018-10-12T03:44:39.212Z,22.70
2018-10-12T03:45:16.714Z,22.70
2018-10-12T03:45:54.153Z,22.70
2018-10-12T03:46:31.385Z,22.70
2018-10-12T03:47:08.795Z,22.70
2018-10-12T03:47:45.950Z,22.70
2018-10-12T03:48:23.395Z,22.70
2018-10-12T03:49:00.851Z,22.70
2018-10-12T03:49:38.337Z,22.70
2018-10-12T03:50:15.703Z,22.70
2018-10-12T03:50:53.198Z,22.70
2018-10-12T03:51:30.783Z,22.70
2018-10-12T03:52:08.027Z,22.70
2018-10-12T03:52:45.376Z,22.70
2018-10-12T03:53:22.795Z,22.70
2018-10-12T03:54:00.442Z,22.70
2018-10-12T03:54:37.964Z,22.70
2018-10-12T03:55:15.414Z,22.70
2018-10-12T03:55:52.871Z,22.70
2018-10-12T03:56:30.077Z,22.70
2018-10-12T03:57:07.522Z,22.70
2018-10-12T03:57:44.926Z,22.60
2018-10-12T03:58:22.250Z,22.70
2018-10-12T03:58:59.639Z,22.70
2018-10-12T03:59:37.090Z,22.70
2018-10-12T04:00:14.465Z,22.70
2018-10-12T04:00:51.750Z,22.70
2018-10-12T04:01:29.261Z,22.50
2018-10-12T04:02:06.576Z,22.70
2018-10-12T04:02:44.124Z,22.60
2018-10-12T04:03:21.581Z,22.70
2018-10-12T04:03:59.171Z,22.70
2018-10-12T04:04:36.539Z,22.70
2018-10-12T04:05:13.739Z,22.70
2018-10-12T04:05:50.945Z,22.60
2018-10-12T04:06:28.237Z,22.70
2018-10-12T04:07:05.699Z,22.70
2018-10-12T04:07:42.877Z,22.60
2018-10-12T04:09:03.247Z,22.60
2018-10-12T04:09:40.691Z,22.70
2018-10-12T04:10:18.214Z,22.60
2018-10-12T04:10:55.580Z,22.60
2018-10-12T04:11:33.172Z,22.60
2018-10-12T04:12:10.513Z,22.60
2018-10-12T04:12:48.053Z,22.70
2018-10-12T04:13:25.338Z,22.70
2018-10-12T04:14:06.477Z,22.70
2018-10-12T04:14:43.894Z,22.70
2018-10-12T04:15:21.305Z,22.70
2018-10-12T04:15:58.725Z,22.70
2018-10-12T04:16:36.120Z,22.70
2018-10-12T04:17:13.540Z,22.70
2018-10-12T04:17:50.988Z,22.70
2018-10-12T04:18:28.360Z,22.70
2018-10-12T04:19:09.442Z,22.70
2018-10-12T04:19:46.937Z,22.70
2018-10-12T04:20:24.226Z,22.70
2018-10-12T04:21:01.627Z,22.70
2018-10-12T04:21:39.067Z,22.70
2018-10-12T04:22:16.552Z,22.70
2018-10-12T04:22:54.012Z,22.70
2018-10-12T04:23:31.515Z,22.70
2018-10-12T04:24:08.803Z,22.70
2018-10-12T04:24:49.583Z,22.70
2018-10-12T04:25:26.821Z,22.70
2018-10-12T04:26:04.152Z,22.70
2018-10-12T04:26:41.744Z,22.70
2018-10-12T04:27:19.084Z,22.70
2018-10-12T04:27:56.456Z,22.70
2018-10-12T04:28:33.861Z,22.70
2018-10-12T04:29:11.116Z,22.70
2018-10-12T04:29:48.582Z,22.70
2018-10-12T04:30:25.808Z,22.70
2018-10-12T04:31:02.998Z,22.70
2018-10-12T04:31:40.289Z,22.70
2018-10-12T04:32:17.759Z,22.70
2018-10-12T04:32:55.243Z,22.70
2018-10-12T04:33:32.700Z,22.70
2018-10-12T04:34:10.002Z,22.70
2018-10-12T04:34:47.309Z,22.70
2018-10-12T04:35:24.645Z,22.70
2018-10-12T04:36:02.057Z,22.70
2018-10-12T04:36:39.461Z,22.70
2018-10-12T04:37:16.969Z,22.70
2018-10-12T04:37:54.219Z,22.70
2018-10-12T04:38:31.724Z,22.70
2018-10-12T04:39:09.204Z,22.70
2018-10-12T04:39:46.651Z,22.70
2018-10-12T04:40:24.096Z,22.70
2018-10-12T04:41:01.500Z,22.70
2018-10-12T04:41:38.747Z,22.70
2018-10-12T04:42:16.199Z,22.70
2018-10-12T04:42:53.447Z,22.70
2018-10-12T04:43:34.659Z,22.70
2018-10-12T04:44:12.172Z,22.70
2018-10-12T04:44:49.668Z,22.70
2018-10-12T04:45:27.089Z,22.70
2018-10-12T04:46:04.574Z,22.70
2018-10-12T04:46:41.910Z,22.70
2018-10-12T04:47:19.370Z,22.70
2018-10-12T04:47:56.641Z,22.70
2018-10-12T04:48:33.785Z,22.70
2018-10-12T04:49:11.000Z,22.70
2018-10-12T04:49:48.522Z,22.70
2018-10-12T04:50:25.973Z,22.70
2018-10-12T04:51:03.365Z,22.70
2018-10-12T04:51:40.630Z,22.70
2018-10-12T04:52:18.214Z,22.70
2018-10-12T04:52:55.713Z,22.70
2018-10-12T04:53:33.173Z,22.70
2018-10-12T04:54:10.814Z,22.70
2018-10-12T04:54:48.136Z,22.70
2018-10-12T04:55:25.554Z,22.70
2018-10-12T04:56:02.932Z,22.70
2018-10-12T04:56:40.285Z,22.70
2018-10-12T04:57:17.806Z,22.70
2018-10-12T04:57:55.291Z,22.70
2018-10-12T04:58:32.996Z,22.70
2018-10-12T04:59:10.372Z,22.70
2018-10-12T04:59:47.924Z,22.70
2018-10-12T05:00:25.305Z,22.70
2018-10-12T05:01:02.611Z,22.70
2018-10-12T05:01:40.222Z,22.70
2018-10-12T05:02:17.674Z,22.70
2018-10-12T05:02:54.977Z,22.70
2018-10-12T05:03:32.473Z,22.70
2018-10-12T05:04:09.941Z,22.70
2018-10-12T05:04:47.340Z,22.70
2018-10-12T05:05:24.905Z,22.70
2018-10-12T05:06:02.295Z,22.70
2018-10-12T05:06:39.712Z,22.70
2018-10-12T05:07:16.965Z,22.70
2018-10-12T05:07:54.527Z,22.70
2018-10-12T05:08:31.975Z,22.70
2018-10-12T05:09:09.362Z,22.70
2018-10-12T05:09:46.767Z,22.60
2018-10-12T05:10:24.313Z,22.70
2018-10-12T05:11:01.736Z,22.70
2018-10-12T05:11:39.262Z,22.70
2018-10-12T05:12:16.805Z,22.70
2018-10-12T05:12:54.001Z,22.70
2018-10-12T05:13:31.641Z,22.70
2018-10-12T05:14:09.052Z,22.60
2018-10-12T05:14:46.405Z,22.70
2018-10-12T05:15:24.028Z,22.30
2018-10-12T05:16:01.517Z,22.70
2018-10-12T05:16:39.097Z,22.70
2018-10-12T05:17:16.478Z,22.70
2018-10-12T05:17:53.822Z,22.70
2018-10-12T05:18:31.439Z,22.70
2018-10-12T05:19:08.737Z,22.70
2018-10-12T05:19:46.125Z,22.70
2018-10-12T05:20:23.497Z,22.70
2018-10-12T05:21:00.702Z,22.70
2018-10-12T05:21:37.874Z,22.70
2018-10-12T05:22:15.232Z,22.70
2018-10-12T05:22:52.568Z,22.70
2018-10-12T05:23:29.886Z,22.70
2018-10-12T05:24:07.218Z,22.70
2018-10-12T05:24:44.377Z,22.70
2018-10-12T05:25:21.805Z,22.70
2018-10-12T05:25:59.186Z,22.70
2018-10-12T05:26:36.544Z,22.70
2018-10-12T05:27:14.066Z,22.70
2018-10-12T05:27:51.686Z,22.70
2018-10-12T05:28:28.961Z,22.70
2018-10-12T05:29:06.380Z,22.70
2018-10-12T05:29:43.694Z,22.60
2018-10-12T05:30:20.977Z,22.70
2018-10-12T05:30:58.547Z,22.70
2018-10-12T05:31:35.880Z,22.60
2018-10-12T05:32:13.346Z,22.60
2018-10-12T05:32:51.192Z,22.70
2018-10-12T05:33:28.689Z,22.60
2018-10-12T05:34:05.924Z,22.60
2018-10-12T05:34:43.413Z,22.60
2018-10-12T05:35:20.806Z,22.60
2018-10-12T05:35:58.424Z,22.70
2018-10-12T05:36:35.718Z,22.70
2018-10-12T05:37:13.101Z,22.70
2018-10-12T05:37:50.556Z,22.70
2018-10-12T05:38:28.017Z,22.70
2018-10-12T05:39:05.542Z,22.70
2018-10-12T05:39:43.014Z,22.70
2018-10-12T05:40:20.315Z,22.70
2018-10-12T05:40:57.719Z,22.70
2018-10-12T05:41:35.093Z,22.70
2018-10-12T05:42:12.510Z,22.70
2018-10-12T05:42:49.968Z,22.70
2018-10-12T05:44:09.062Z,22.70
2018-10-12T05:44:46.373Z,22.70
2018-10-12T05:45:24.028Z,22.70
2018-10-12T05:46:01.497Z,22.70
2018-10-12T05:46:38.841Z,22.70
2018-10-12T05:47:16.358Z,22.70
2018-10-12T05:47:53.776Z,22.70
2018-10-12T05:48:31.361Z,22.70
2018-10-12T05:49:08.862Z,22.70
2018-10-12T05:49:46.236Z,22.70
2018-10-12T05:50:23.749Z,22.70
2018-10-12T05:51:01.260Z,22.70
2018-10-12T05:51:38.733Z,22.70
2018-10-12T05:52:16.258Z,22.70
2018-10-12T05:52:53.709Z,22.70
2018-10-12T05:53:31.142Z,22.70
2018-10-12T05:54:08.505Z,22.70
2018-10-12T05:54:45.895Z,22.70
2018-10-12T05:55:23.320Z,22.70
2018-10-12T05:56:00.712Z,22.60
2018-10-12T05:56:38.129Z,22.70
2018-10-12T05:57:15.561Z,22.70
2018-10-12T05:57:52.967Z,22.70
2018-10-12T05:58:30.414Z,22.60
2018-10-12T05:59:07.772Z,22.70
2018-10-12T05:59:45.130Z,22.70
2018-10-12T06:00:22.375Z,22.70
2018-10-12T06:00:59.682Z,22.70
2018-10-12T06:01:37.208Z,22.70
2018-10-12T06:02:14.660Z,22.70
2018-10-12T06:02:52.132Z,22.60
2018-10-12T06:03:29.535Z,22.70
2018-10-12T06:04:06.927Z,22.70
2018-10-12T06:04:44.227Z,22.70
2018-10-12T06:05:21.640Z,22.70
2018-10-12T06:05:59.235Z,22.70
2018-10-12T06:06:40.681Z,22.70
2018-10-12T06:07:18.098Z,22.70
2018-10-12T06:07:55.393Z,22.70
2018-10-12T06:08:32.888Z,22.70
2018-10-12T06:09:10.458Z,22.70
2018-10-12T06:09:48.122Z,22.70
2018-10-12T06:10:25.523Z,22.70
2018-10-12T06:11:02.972Z,22.70
2018-10-12T06:11:40.524Z,22.70
2018-10-12T06:12:17.818Z,22.70
2018-10-12T06:12:55.247Z,22.70
2018-10-12T06:13:32.711Z,22.70
2018-10-12T06:14:10.343Z,22.70
2018-10-12T06:14:47.704Z,22.70
2018-10-12T06:15:25.019Z,22.70
2018-10-12T06:16:02.578Z,22.70
2018-10-12T06:16:39.952Z,22.70
2018-10-12T06:17:17.323Z,22.70
2018-10-12T06:17:54.904Z,22.70
2018-10-12T06:18:32.206Z,22.70
2018-10-12T06:19:09.568Z,22.70
2018-10-12T06:19:46.912Z,22.70
2018-10-12T06:20:24.183Z,22.70
2018-10-12T06:21:01.753Z,22.70
2018-10-12T06:21:39.198Z,22.70
2018-10-12T06:22:16.712Z,22.70
2018-10-12T06:22:53.989Z,22.70
2018-10-12T06:23:31.455Z,22.70
2018-10-12T06:24:08.844Z,22.70
2018-10-12T06:24:46.275Z,22.70
2018-10-12T06:25:23.504Z,22.70
2018-10-12T06:26:00.735Z,22.70
2018-10-12T06:26:38.390Z,22.70
2018-10-12T06:27:15.859Z,22.70
2018-10-12T06:27:53.284Z,22.70
2018-10-12T06:28:30.514Z,22.70
2018-10-12T06:29:07.879Z,22.70
2018-10-12T06:29:45.289Z,22.70
2018-10-12T06:30:22.640Z,22.70
2018-10-12T06:31:00.130Z,22.70
2018-10-12T06:31:37.798Z,22.70
2018-10-12T06:32:15.185Z,22.70
2018-10-12T06:32:52.685Z,22.70
2018-10-12T06:33:29.997Z,22.70
2018-10-12T06:34:07.544Z,22.70
2018-10-12T06:34:44.975Z,22.70
2018-10-12T06:35:22.409Z,22.70
2018-10-12T06:35:59.771Z,22.70
2018-10-12T06:36:37.044Z,22.70
2018-10-12T06:37:14.535Z,22.80
2018-10-12T06:37:51.883Z,22.70
2018-10-12T06:38:29.141Z,22.80
2018-10-12T06:39:06.403Z,22.70
2018-10-12T06:39:43.840Z,22.80
2018-10-12T06:40:21.396Z,22.80
2018-10-12T06:40:58.760Z,22.80
2018-10-12T06:41:36.033Z,22.80
2018-10-12T06:42:13.521Z,22.80
2018-10-12T06:42:50.944Z,22.80
2018-10-12T06:43:28.186Z,22.80
2018-10-12T06:44:05.754Z,22.80
2018-10-12T06:44:43.186Z,22.90
2018-10-12T06:45:20.589Z,22.90
2018-10-12T06:45:57.922Z,22.90
2018-10-12T06:46:35.440Z,22.90
2018-10-12T06:47:13.018Z,22.90
2018-10-12T06:47:50.402Z,22.90
2018-10-12T06:48:27.785Z,23.00
2018-10-12T06:49:05.214Z,23.00
2018-10-12T06:49:42.460Z,23.00
2018-10-12T06:50:19.952Z,23.00
2018-10-12T06:50:57.486Z,23.00
2018-10-12T06:51:34.844Z,23.00
2018-10-12T06:52:12.232Z,23.10
2018-10-12T06:52:49.763Z,23.10
2018-10-12T06:53:27.209Z,23.10
2018-10-12T06:54:04.603Z,23.10
2018-10-12T06:54:41.895Z,23.10
2018-10-12T06:56:02.081Z,23.10
2018-10-12T06:56:39.498Z,23.20
2018-10-12T06:57:16.911Z,23.20
2018-10-12T06:57:54.310Z,23.20
2018-10-12T06:58:31.647Z,23.10
2018-10-12T06:59:09.060Z,23.10
2018-10-12T06:59:46.299Z,23.20
2018-10-12T07:00:23.708Z,23.20
2018-10-12T07:01:01.079Z,22.70
2018-10-12T07:01:38.623Z,23.20
2018-10-12T07:02:15.966Z,23.20
2018-10-12T07:02:53.296Z,23.20
2018-10-12T07:03:30.626Z,23.20
2018-10-12T07:04:08.135Z,23.20
2018-10-12T07:04:45.535Z,23.20
2018-10-12T07:05:23.016Z,23.20
2018-10-12T07:06:00.266Z,23.20
2018-10-12T07:06:37.728Z,23.20
2018-10-12T07:07:15.256Z,23.30
2018-10-12T07:07:52.664Z,23.20
2018-10-12T07:08:30.022Z,23.30
2018-10-12T07:09:07.708Z,23.20
2018-10-12T07:09:45.307Z,23.30
2018-10-12T07:10:22.835Z,23.30
2018-10-12T07:11:00.153Z,23.30
2018-10-12T07:11:37.625Z,23.30
2018-10-12T07:12:15.114Z,23.30
2018-10-12T07:12:52.492Z,23.30
2018-10-12T07:13:29.869Z,23.30
2018-10-12T07:14:07.511Z,23.30
2018-10-12T07:14:44.698Z,23.30
2018-10-12T07:15:22.135Z,23.30
2018-10-12T07:15:59.544Z,23.30
2018-10-12T07:16:36.837Z,23.30
2018-10-12T07:17:14.394Z,23.40
2018-10-12T07:17:51.758Z,23.30
2018-10-12T07:18:29.162Z,23.30
2018-10-12T07:19:06.623Z,23.40
2018-10-12T07:19:43.913Z,23.30
2018-10-12T07:20:21.422Z,23.30
2018-10-12T07:20:58.876Z,23.30
2018-10-12T07:21:36.611Z,23.30
2018-10-12T07:22:14.185Z,23.30
2018-10-12T07:22:51.544Z,23.30
2018-10-12T07:23:29.116Z,23.30
2018-10-12T07:24:06.457Z,23.40
2018-10-12T07:24:43.875Z,23.30
2018-10-12T07:25:21.327Z,23.40
2018-10-12T07:25:58.614Z,23.30
2018-10-12T07:26:36.211Z,23.30
2018-10-12T07:27:13.695Z,23.40
2018-10-12T07:27:51.170Z,23.40
2018-10-12T07:28:28.553Z,23.40
2018-10-12T07:29:06.193Z,23.40
2018-10-12T07:29:43.694Z,23.40
2018-10-12T07:30:21.189Z,23.40
2018-10-12T07:30:58.554Z,23.40
2018-10-12T07:31:36.202Z,23.40
2018-10-12T07:32:13.654Z,23.40
2018-10-12T07:32:51.118Z,23.40
2018-10-12T07:33:28.510Z,23.40
2018-10-12T07:34:05.951Z,23.40
2018-10-12T07:34:43.349Z,23.40
2018-10-12T07:35:20.634Z,23.40
2018-10-12T07:35:58.189Z,23.40
2018-10-12T07:36:35.742Z,23.40
2018-10-12T07:37:13.098Z,23.40
2018-10-12T07:37:50.477Z,23.40
2018-10-12T07:38:27.957Z,23.40
2018-10-12T07:39:05.477Z,23.40
2018-10-12T07:39:42.919Z,23.40
2018-10-12T07:40:20.402Z,23.40
2018-10-12T07:40:57.994Z,23.40
2018-10-12T07:41:35.225Z,23.40
2018-10-12T07:42:12.809Z,23.40
2018-10-12T07:42:50.290Z,23.40
2018-10-12T07:43:27.876Z,23.40
2018-10-12T07:44:05.424Z,23.40
2018-10-12T07:44:42.817Z,23.40
2018-10-12T07:45:20.379Z,23.40
2018-10-12T07:45:57.969Z,23.40
2018-10-12T07:46:35.568Z,23.40
2018-10-12T07:47:12.985Z,23.40
2018-10-12T07:47:50.507Z,23.40
2018-10-12T07:48:28.005Z,23.40
2018-10-12T07:49:05.587Z,23.40
2018-10-12T07:49:43.262Z,23.40
2018-10-12T07:50:20.765Z,23.40
2018-10-12T07:50:58.226Z,23.40
2018-10-12T07:51:35.701Z,23.50
2018-10-12T07:52:13.055Z,23.50
2018-10-12T07:52:50.617Z,23.50
2018-10-12T07:53:28.110Z,23.50
2018-10-12T07:54:05.663Z,23.40
2018-10-12T07:54:43.094Z,23.40
2018-10-12T07:55:20.409Z,23.50
2018-10-12T07:55:57.992Z,23.50
2018-10-12T07:56:35.428Z,23.50
2018-10-12T07:57:13.067Z,23.50
2018-10-12T07:57:50.739Z,23.50
2018-10-12T07:58:28.214Z,23.50
2018-10-12T07:59:05.679Z,23.50
2018-10-12T07:59:43.190Z,23.50
2018-10-12T08:00:23.961Z,23.50
2018-10-12T08:01:01.415Z,23.60
2018-10-12T08:01:38.733Z,23.50
2018-10-12T08:02:16.682Z,23.50
2018-10-12T08:02:53.644Z,23.50
2018-10-12T08:03:30.831Z,23.50
2018-10-12T08:04:08.126Z,23.50
2018-10-12T08:04:45.776Z,23.60
2018-10-12T08:05:23.189Z,23.50
2018-10-12T08:06:00.491Z,23.60
2018-10-12T08:06:38.135Z,23.50
2018-10-12T08:07:15.626Z,23.60
2018-10-12T08:07:53.065Z,23.60
2018-10-12T08:08:30.583Z,23.60
2018-10-12T08:09:08.043Z,23.60
2018-10-12T08:09:45.373Z,23.60
2018-10-12T08:10:22.792Z,23.60